Time;durP1;ratioP1;P1;durP2;ratioP2;P2;SDS_P1;SDS_P2;PMS_P1;PMS_P2;Temp;Humidity;BMP_temperature;BMP_pressure;BME280_temperature;BME280_humidity;BME280_pressure;Samples;Min_cycle;Max_cycle;Signal;HPM_P1;HPM_P2
2021/03/26 00:01:05;;;;;;;16.90;9.90;;;1.70;99.90;;;;;;4976195;28;20552;-83
2021/03/26 00:03:35;;;;;;;19.03;10.40;;;1.70;99.90;;;;;;4958657;28;20046;-83
2021/03/26 00:06:07;;;;;;;19.40;10.20;;;1.60;99.90;;;;;;4958886;28;20046;-83
2021/03/26 00:08:33;;;;;;;15.18;9.70;;;1.50;99.90;;;;;;4958766;28;20480;-83
2021/03/26 00:11:01;;;;;;;16.00;8.95;;;1.60;99.90;;;;;;4975956;28;20051;-83
2021/03/26 00:13:27;;;;;;;18.15;9.77;;;1.60;99.90;;;;;;4975972;28;20050;-83
2021/03/26 00:15:53;;;;;;;15.48;9.45;;;1.50;99.90;;;;;;4958536;28;20051;-83
2021/03/26 00:18:19;;;;;;;16.65;10.23;;;1.40;99.90;;;;;;4958663;28;20086;-83
2021/03/26 00:20:46;;;;;;;13.25;9.18;;;1.40;99.90;;;;;;4958788;28;20102;-83
2021/03/26 00:23:12;;;;;;;16.30;9.10;;;1.40;99.90;;;;;;4958635;28;20476;-83
2021/03/26 00:25:39;;;;;;;19.23;10.18;;;1.30;99.90;;;;;;4975492;28;20101;-83
2021/03/26 00:28:06;;;;;;;18.33;9.18;;;1.30;99.90;;;;;;4975424;28;20055;-83
2021/03/26 00:30:34;;;;;;;15.88;8.68;;;1.20;99.90;;;;;;4958716;28;20475;-83
2021/03/26 00:33:02;;;;;;;18.42;10.55;;;1.20;99.90;;;;;;4975466;28;20062;-83
2021/03/26 00:35:30;;;;;;;18.63;9.35;;;1.10;99.90;;;;;;4958473;28;20054;-83
2021/03/26 00:37:57;;;;;;;15.07;9.10;;;1.10;99.90;;;;;;4974244;28;20078;-82
2021/03/26 00:40:24;;;;;;;17.23;9.43;;;1.00;99.90;;;;;;4958460;28;20089;-83
2021/03/26 00:42:51;;;;;;;17.90;11.23;;;1.00;99.90;;;;;;4975395;28;20047;-82
2021/03/26 00:45:32;;;;;;;18.35;10.32;;;1.10;99.90;;;;;;4958099;28;20479;-83
2021/03/26 00:47:59;;;;;;;16.00;9.88;;;1.10;99.90;;;;;;4975225;28;20051;-83
2021/03/26 00:50:33;;;;;;;18.13;9.65;;;1.10;99.90;;;;;;4975485;28;20047;-82
2021/03/26 00:53:02;;;;;;;17.35;9.45;;;1.20;99.90;;;;;;4958380;28;20082;-82
2021/03/26 00:55:28;;;;;;;16.52;9.02;;;1.30;99.90;;;;;;4974997;28;20138;-82
2021/03/26 00:57:55;;;;;;;17.77;9.88;;;1.30;99.90;;;;;;4974790;28;20050;-83
2021/03/26 01:00:26;;;;;;;17.95;11.20;;;1.30;99.90;;;;;;4970177;28;20047;-81
2021/03/26 01:02:53;;;;;;;18.08;11.70;;;1.30;99.90;;;;;;4957022;28;20086;-84
2021/03/26 01:05:24;;;;;;;18.75;10.77;;;1.30;99.90;;;;;;4958101;28;20451;-84
2021/03/26 01:07:50;;;;;;;18.20;11.73;;;1.30;99.90;;;;;;4974532;28;20051;-84
2021/03/26 01:10:20;;;;;;;18.42;10.80;;;1.30;99.90;;;;;;4974774;28;20089;-83
2021/03/26 01:12:46;;;;;;;18.83;9.77;;;1.30;99.90;;;;;;4957713;28;20130;-84
2021/03/26 01:15:15;;;;;;;16.67;10.45;;;1.20;99.90;;;;;;4975085;28;20078;-84
2021/03/26 01:17:43;;;;;;;19.13;10.18;;;1.10;99.90;;;;;;4974657;28;20126;-84
2021/03/26 01:20:14;;;;;;;21.23;11.35;;;1.10;99.90;;;;;;4974815;28;20047;-84
2021/03/26 01:22:40;;;;;;;21.85;11.32;;;1.00;99.90;;;;;;4957371;28;20503;-83
2021/03/26 01:25:30;;;;;;;17.85;11.10;;;0.90;99.90;;;;;;4974640;28;20060;-84
2021/03/26 01:27:57;;;;;;;23.38;11.15;;;0.90;99.90;;;;;;4974534;28;20055;-84
2021/03/26 01:30:24;;;;;;;21.67;10.13;;;0.90;99.90;;;;;;4957523;28;20133;-84
2021/03/26 01:32:51;;;;;;;22.70;11.77;;;0.80;99.90;;;;;;4957371;28;20476;-83
2021/03/26 01:35:21;;;;;;;18.65;10.85;;;0.70;99.90;;;;;;4974275;28;20047;-84
2021/03/26 01:37:48;;;;;;;20.20;10.98;;;0.70;99.90;;;;;;4957205;28;20388;-84
2021/03/26 01:40:20;;;;;;;18.25;10.57;;;0.70;99.90;;;;;;4957373;28;20455;-84
2021/03/26 01:42:46;;;;;;;19.52;10.82;;;0.70;99.90;;;;;;4941590;28;20488;-84
2021/03/26 01:45:21;;;;;;;20.85;10.70;;;0.70;99.90;;;;;;4974418;28;20491;-84
2021/03/26 01:47:49;;;;;;;20.60;11.40;;;0.70;99.90;;;;;;4956489;28;20051;-84
2021/03/26 01:50:19;;;;;;;19.67;11.05;;;0.70;99.90;;;;;;4974233;28;20059;-84
2021/03/26 01:52:45;;;;;;;26.70;11.57;;;0.70;99.90;;;;;;4957111;28;20053;-84
2021/03/26 01:55:20;;;;;;;24.08;11.23;;;0.60;99.90;;;;;;4957110;28;20080;-84
2021/03/26 01:57:47;;;;;;;20.90;11.10;;;0.60;99.90;;;;;;4974146;28;20439;-84
2021/03/26 02:00:38;;;;;;;18.58;10.70;;;0.50;99.90;;;;;;4974173;28;20410;-83
2021/03/26 02:03:20;;;;;;;23.60;11.93;;;0.40;99.90;;;;;;4956962;28;20057;-83
2021/03/26 02:05:52;;;;;;;24.33;11.30;;;0.40;99.90;;;;;;4974296;28;20138;-84
2021/03/26 02:08:25;;;;;;;20.60;10.77;;;0.40;99.90;;;;;;4956878;28;20047;-84
2021/03/26 02:10:52;;;;;;;17.88;10.38;;;0.40;99.90;;;;;;4973976;28;20511;-83
2021/03/26 02:13:30;;;;;;;18.23;10.77;;;0.40;99.90;;;;;;4957123;28;20455;-84
2021/03/26 02:15:58;;;;;;;26.10;12.00;;;0.40;99.90;;;;;;4983889;28;20055;-85
2021/03/26 02:18:30;;;;;;;25.88;12.18;;;0.40;99.90;;;;;;4977209;28;20070;-84
2021/03/26 02:21:21;;;;;;;27.08;13.63;;;0.30;99.90;;;;;;4957018;28;20451;-83
2021/03/26 02:23:49;;;;;;;25.83;13.82;;;0.30;99.90;;;;;;4974118;28;20055;-84
2021/03/26 02:26:22;;;;;;;32.10;14.35;;;0.30;99.90;;;;;;4957159;28;20102;-84
2021/03/26 02:28:50;;;;;;;30.83;12.90;;;0.30;99.90;;;;;;4974123;28;20075;-84
2021/03/26 02:31:16;;;;;;;24.95;11.23;;;0.40;99.90;;;;;;4956731;28;20131;-83
2021/03/26 02:33:43;;;;;;;26.48;11.68;;;0.40;99.90;;;;;;4973743;28;20134;-83
2021/03/26 02:36:13;;;;;;;32.55;13.70;;;0.40;99.90;;;;;;4956479;28;20059;-84
2021/03/26 02:38:45;;;;;;;23.88;12.13;;;0.40;99.90;;;;;;4972712;28;20126;-84
2021/03/26 02:41:31;;;;;;;32.70;13.40;;;0.30;99.90;;;;;;4973850;28;20101;-84
2021/03/26 02:44:00;;;;;;;37.45;14.40;;;0.40;99.90;;;;;;4973725;28;20585;-83
2021/03/26 02:46:54;;;;;;;30.63;13.70;;;0.30;99.90;;;;;;4956214;28;20057;-83
2021/03/26 02:49:41;;;;;;;28.35;14.93;;;0.40;99.90;;;;;;4973741;28;20058;-83
2021/03/26 02:52:18;;;;;;;29.50;14.05;;;0.40;99.90;;;;;;4973633;28;20063;-84
2021/03/26 02:54:53;;;;;;;27.88;13.18;;;0.40;99.90;;;;;;4956618;28;20129;-84
2021/03/26 02:57:32;;;;;;;28.77;13.75;;;0.40;99.90;;;;;;4972783;28;20134;-83
2021/03/26 03:00:15;;;;;;;27.98;13.88;;;0.30;99.90;;;;;;4956334;28;20420;-83
2021/03/26 03:02:43;;;;;;;35.65;15.05;;;0.20;99.90;;;;;;4956357;28;20480;-84
2021/03/26 03:05:34;;;;;;;34.15;14.88;;;0.30;99.90;;;;;;4956610;28;20051;-83
2021/03/26 03:08:09;;;;;;;34.08;13.52;;;0.20;99.90;;;;;;4956430;28;20665;-83
2021/03/26 03:10:40;;;;;;;39.67;15.27;;;0.10;99.90;;;;;;4956700;28;20149;-84
2021/03/26 03:13:53;;;;;;;33.05;14.90;;;0.00;99.90;;;;;;4973386;28;20087;-84
2021/03/26 03:16:28;;;;;;;30.27;13.30;;;-0.10;99.90;;;;;;4952676;28;20086;-84
2021/03/26 03:19:22;;;;;;;29.58;14.98;;;-0.10;99.90;;;;;;4956685;28;20051;-84
2021/03/26 03:22:07;;;;;;;31.40;14.98;;;-0.10;99.90;;;;;;4959627;28;20467;-85
2021/03/26 03:24:38;;;;;;;31.83;14.68;;;0.00;99.90;;;;;;4959944;28;20133;-84
2021/03/26 03:27:30;;;;;;;35.25;15.45;;;-0.10;99.90;;;;;;4959770;28;20487;-84
2021/03/26 03:30:11;;;;;;;38.40;15.98;;;-0.20;99.90;;;;;;4959656;28;20129;-84
2021/03/26 03:33:05;;;;;;;38.95;15.48;;;-0.20;99.90;;;;;;4978885;28;20137;-84
2021/03/26 03:35:39;;;;;;;34.28;16.13;;;-0.20;99.90;;;;;;4964066;28;20388;-84
2021/03/26 03:38:21;;;;;;;38.63;17.00;;;-0.20;99.90;;;;;;4976313;28;20157;-85
2021/03/26 03:41:11;;;;;;;43.97;17.92;;;-0.20;99.90;;;;;;4975654;28;20134;-85
2021/03/26 03:44:01;;;;;;;37.67;17.52;;;-0.10;99.90;;;;;;4976591;28;20053;-84
2021/03/26 03:46:49;;;;;;;43.28;16.95;;;-0.10;99.90;;;;;;4959054;28;20058;-84
2021/03/26 03:49:25;;;;;;;38.08;17.13;;;-0.20;99.90;;;;;;4959297;28;20074;-84
2021/03/26 03:52:07;;;;;;;36.95;16.20;;;-0.20;99.90;;;;;;4976180;28;20060;-84
2021/03/26 03:54:39;;;;;;;41.60;17.95;;;-0.20;99.90;;;;;;4975213;28;20043;-83
2021/03/26 03:57:12;;;;;;;40.53;17.90;;;-0.20;99.90;;;;;;4976073;28;20101;-83
2021/03/26 03:59:51;;;;;;;45.70;18.20;;;-0.20;99.90;;;;;;4959525;28;20097;-84
2021/03/26 04:02:52;;;;;;;37.25;17.80;;;-0.30;99.90;;;;;;4976393;28;20050;-84
2021/03/26 04:05:26;;;;;;;45.65;20.08;;;-0.30;99.90;;;;;;4944951;28;20051;-84
2021/03/26 04:07:56;;;;;;;47.78;19.33;;;-0.40;99.90;;;;;;4958615;28;20456;-84
2021/03/26 04:10:24;;;;;;;47.83;19.35;;;-0.30;99.90;;;;;;4975141;28;20070;-83
2021/03/26 04:12:54;;;;;;;54.00;19.75;;;-0.40;99.90;;;;;;4976168;28;20485;-84
2021/03/26 04:15:35;;;;;;;48.33;19.50;;;-0.30;99.90;;;;;;4976023;28;20105;-84
2021/03/26 04:18:17;;;;;;;60.22;20.70;;;-0.30;99.90;;;;;;4975845;28;20054;-84
2021/03/26 04:20:49;;;;;;;46.47;18.85;;;-0.40;99.90;;;;;;4975243;28;20515;-84
2021/03/26 04:23:25;;;;;;;52.90;18.85;;;-0.30;99.90;;;;;;4976001;28;20082;-84
2021/03/26 04:26:45;;;;;;;53.33;18.35;;;-0.30;99.90;;;;;;4958578;28;20078;-84
2021/03/26 04:29:22;;;;;;;57.28;20.50;;;-0.40;99.90;;;;;;4933119;28;20086;-85
2021/03/26 04:32:00;;;;;;;54.78;21.52;;;-0.40;99.90;;;;;;4957377;28;20133;-83
2021/03/26 04:34:29;;;;;;;50.35;19.50;;;-0.40;99.90;;;;;;4975314;28;20082;-84
2021/03/26 04:36:58;;;;;;;52.22;20.88;;;-0.40;99.90;;;;;;4975420;28;20055;-84
2021/03/26 04:39:33;;;;;;;47.47;19.27;;;-0.40;99.90;;;;;;4975593;28;20138;-84
2021/03/26 04:42:11;;;;;;;42.72;18.83;;;-0.40;99.90;;;;;;4974433;28;20182;-84
2021/03/26 04:44:53;;;;;;;60.83;21.15;;;-0.50;99.90;;;;;;4958482;28;20047;-84
2021/03/26 04:47:27;;;;;;;47.40;20.85;;;-0.50;99.90;;;;;;4959387;28;20575;-85
2021/03/26 04:50:01;;;;;;;46.83;19.95;;;-0.50;99.90;;;;;;4991936;28;20058;-84
2021/03/26 04:52:38;;;;;;;57.30;21.92;;;-0.50;99.90;;;;;;4958157;28;20050;-84
2021/03/26 04:55:34;;;;;;;51.85;21.65;;;-0.60;99.90;;;;;;4958026;28;20061;-84
2021/03/26 04:58:08;;;;;;;43.00;19.13;;;-0.60;99.90;;;;;;4956853;28;20117;-84
2021/03/26 05:00:43;;;;;;;;;;;-0.60;99.90;;;;;;4958577;28;20058;-84
2021/03/26 05:03:19;;;;;;;48.25;18.27;;;-0.70;99.90;;;;;;4975108;28;19977;-84
2021/03/26 05:05:57;;;;;;;55.45;20.20;;;-0.70;99.90;;;;;;4974812;28;20047;-83
2021/03/26 05:08:25;;;;;;;53.75;19.95;;;-0.70;99.90;;;;;;4958246;28;20047;-84
2021/03/26 05:10:54;;;;;;;63.08;22.42;;;-0.70;99.90;;;;;;4957817;28;20047;-84
2021/03/26 05:13:36;;;;;;;59.90;22.95;;;-0.80;99.90;;;;;;4975399;28;20054;-84
2021/03/26 05:16:13;;;;;;;62.05;22.75;;;-0.70;99.90;;;;;;4957564;28;20081;-84
2021/03/26 05:18:47;;;;;;;61.92;23.02;;;-0.70;99.90;;;;;;4957610;28;20161;-84
2021/03/26 05:21:26;;;;;;;62.92;23.77;;;-0.60;99.90;;;;;;4957938;28;20051;-84
2021/03/26 05:24:19;;;;;;;56.50;24.67;;;-0.60;99.90;;;;;;4957720;28;20055;-84
2021/03/26 05:26:46;;;;;;;62.53;26.55;;;-0.60;99.90;;;;;;4974701;28;20146;-84
2021/03/26 05:29:13;;;;;;;74.82;26.90;;;-0.50;99.90;;;;;;4974672;28;20137;-84
2021/03/26 05:32:01;;;;;;;81.53;31.00;;;-0.40;99.90;;;;;;4974605;28;20047;-84
2021/03/26 05:34:44;;;;;;;77.38;30.52;;;-0.30;99.90;;;;;;4974601;28;20043;-84
2021/03/26 05:37:25;;;;;;;65.05;28.30;;;-0.30;99.90;;;;;;4974549;28;20106;-84
2021/03/26 05:40:21;;;;;;;77.15;29.20;;;-0.20;99.90;;;;;;4974057;28;20134;-84
2021/03/26 05:42:55;;;;;;;77.18;28.15;;;-0.20;99.90;;;;;;4956881;28;20495;-84
2021/03/26 05:45:55;;;;;;;70.85;26.23;;;-0.30;99.90;;;;;;4957267;28;20138;-84
2021/03/26 05:48:43;;;;;;;83.47;29.20;;;-0.20;99.90;;;;;;4957371;28;20149;-84
2021/03/26 05:51:37;;;;;;;91.05;29.58;;;-0.10;99.90;;;;;;4973234;28;20492;-84
2021/03/26 05:54:33;;;;;;;116.72;32.92;;;0.00;99.90;;;;;;4974348;28;20062;-84
2021/03/26 05:57:11;;;;;;;104.53;33.30;;;0.10;99.90;;;;;;4974278;28;20063;-84
2021/03/26 05:59:58;;;;;;;84.57;32.70;;;0.20;99.90;;;;;;4974574;28;20086;-84
2021/03/26 06:02:36;;;;;;;102.72;34.38;;;0.30;99.90;;;;;;4974953;28;20411;-84
2021/03/26 06:05:18;;;;;;;95.47;35.42;;;0.40;99.90;;;;;;4978480;28;20487;-84
2021/03/26 06:08:10;;;;;;;111.10;39.05;;;0.50;99.90;;;;;;4975386;28;20054;-84
2021/03/26 06:11:03;;;;;;;110.55;39.45;;;0.60;99.90;;;;;;4927941;28;20137;-83
2021/03/26 06:14:09;;;;;;;131.00;44.83;;;0.80;99.90;;;;;;4973093;28;20487;-84
2021/03/26 06:16:52;;;;;;;113.55;42.72;;;0.90;99.90;;;;;;4973848;28;20130;-84
2021/03/26 06:19:24;;;;;;;179.82;55.28;;;1.00;99.90;;;;;;4957153;28;20567;-84
2021/03/26 06:22:22;;;;;;;955.55;164.88;;;1.40;99.90;;;;;;4973848;28;20133;-84
2021/03/26 06:25:17;;;;;;;167.98;61.05;;;2.90;99.90;;;;;;4973979;28;20065;-85
2021/03/26 06:28:22;;;;;;;102.85;45.58;;;4.20;99.90;;;;;;4956659;28;20186;-85
2021/03/26 06:31:12;;;;;;;90.03;41.65;;;4.70;99.90;;;;;;4974001;28;20051;-85
2021/03/26 06:34:40;;;;;;;77.95;34.67;;;4.40;99.90;;;;;;4959351;28;20121;-84
2021/03/26 06:37:41;;;;;;;64.57;28.83;;;4.70;99.90;;;;;;4956650;28;20137;-84
2021/03/26 06:40:36;;;;;;;56.05;25.13;;;4.80;99.90;;;;;;4973781;28;20050;-84
2021/03/26 06:43:27;;;;;;;48.92;20.48;;;5.20;99.90;;;;;;4956717;28;20055;-85
2021/03/26 06:46:48;;;;;;;40.47;15.82;;;6.00;99.90;;;;;;4972627;28;20051;-85
2021/03/26 06:49:28;;;;;;;28.25;13.75;;;6.60;99.90;;;;;;4914418;29;20059;-85
2021/03/26 06:52:37;;;;;;;36.42;12.85;;;7.00;99.90;;;;;;4952045;28;20096;-86
2021/03/26 06:55:16;;;;;;;32.78;13.35;;;7.90;99.90;;;;;;4958768;28;20062;-85
2021/03/26 06:58:27;;;;;;;34.25;13.55;;;8.70;99.90;;;;;;4977542;28;20134;-84
2021/03/26 07:01:20;;;;;;;28.88;11.68;;;8.80;99.90;;;;;;4962536;28;20094;-85
2021/03/26 07:04:08;;;;;;;34.33;13.23;;;9.20;99.90;;;;;;4976283;28;20087;-85
2021/03/26 07:07:02;;;;;;;27.25;12.15;;;9.80;99.90;;;;;;4976385;28;20047;-85
2021/03/26 07:09:44;;;;;;;35.40;13.90;;;10.30;99.90;;;;;;4977628;28;20543;-85
2021/03/26 07:12:40;;;;;;;33.65;12.57;;;10.80;99.90;;;;;;4975854;28;20133;-84
2021/03/26 07:15:09;;;;;;;31.63;12.13;;;11.70;99.90;;;;;;4959990;28;20126;-85
2021/03/26 07:18:09;;;;;;;31.55;14.13;;;11.90;99.90;;;;;;4977505;28;20047;-85
2021/03/26 07:21:02;;;;;;;31.20;14.88;;;11.80;99.90;;;;;;4977574;28;20439;-85
2021/03/26 07:23:47;;;;;;;27.65;11.15;;;11.80;99.90;;;;;;4994558;28;20093;-85
2021/03/26 07:26:50;;;;;;;28.75;12.27;;;11.10;99.90;;;;;;4960544;28;20488;-85
2021/03/26 07:29:44;;;;;;;27.98;12.82;;;11.50;99.90;;;;;;4959604;28;20455;-85
2021/03/26 07:32:30;;;;;;;30.40;12.88;;;12.10;99.90;;;;;;4975492;28;20488;-84
2021/03/26 07:35:16;;;;;;;24.25;11.55;;;12.70;99.90;;;;;;4959508;28;20051;-84
2021/03/26 07:37:55;;;;;;;32.80;11.68;;;14.20;99.90;;;;;;4975990;28;20138;-84
2021/03/26 07:40:30;;;;;;;22.10;11.30;;;15.10;99.90;;;;;;4976738;28;20154;-83
2021/03/26 07:43:29;;;;;;;26.33;11.50;;;15.50;96.50;;;;;;4976803;28;20476;-83
2021/03/26 07:46:33;;;;;;;30.08;12.27;;;16.60;93.60;;;;;;4976357;28;20046;-83
2021/03/26 07:49:14;;;;;;;34.58;12.55;;;16.90;92.30;;;;;;4976247;28;20061;-84
2021/03/26 07:52:05;;;;;;;31.83;11.32;;;17.40;89.90;;;;;;4975188;28;20133;-83
2021/03/26 07:55:09;;;;;;;32.30;11.68;;;18.10;86.70;;;;;;4975307;28;20554;-83
2021/03/26 07:58:04;;;;;;;29.73;14.73;;;19.20;80.30;;;;;;4929877;28;20415;-83
2021/03/26 08:00:40;;;;;;;31.83;15.05;;;18.50;77.30;;;;;;4923921;28;20056;-83
2021/03/26 08:03:13;;;;;;;22.58;15.13;;;18.30;80.60;;;;;;4974968;28;20125;-83
2021/03/26 08:06:00;;;;;;;41.63;15.93;;;18.00;81.50;;;;;;4975059;28;20077;-83
2021/03/26 08:09:03;;;;;;;32.28;21.00;;;17.80;84.70;;;;;;4975665;28;20133;-83
2021/03/26 08:11:52;;;;;;;26.05;18.85;;;17.90;84.70;;;;;;4975095;28;20055;-84
2021/03/26 08:14:42;;;;;;;27.60;20.20;;;18.30;82.60;;;;;;4975498;28;20043;-83
2021/03/26 08:17:36;;;;;;;29.10;16.55;;;18.90;81.40;;;;;;4953760;28;20137;-83
2021/03/26 08:20:24;;;;;;;27.02;17.15;;;19.20;80.30;;;;;;4974990;28;20055;-83
2021/03/26 08:23:22;;;;;;;30.10;18.65;;;19.90;75.80;;;;;;4975956;28;20141;-82
2021/03/26 08:26:29;;;;;;;26.73;19.80;;;20.40;73.20;;;;;;4975837;28;20047;-82
2021/03/26 08:29:26;;;;;;;32.67;23.92;;;21.10;70.40;;;;;;4975764;28;20141;-83
2021/03/26 08:32:45;;;;;;;51.17;30.27;;;20.40;70.80;;;;;;4958324;28;20444;-83
2021/03/26 08:35:54;;;;;;;43.50;26.33;;;19.20;72.50;;;;;;4958090;28;20055;-83
2021/03/26 08:38:57;;;;;;;39.88;26.88;;;18.40;77.00;;;;;;4993212;28;20053;-82
2021/03/26 08:41:34;;;;;;;41.63;26.95;;;18.20;81.70;;;;;;4975811;28;20054;-82
2021/03/26 08:44:01;;;;;;;45.92;29.45;;;18.70;80.40;;;;;;4975509;28;20487;-83
2021/03/26 08:46:38;;;;;;;45.22;29.00;;;18.20;79.30;;;;;;4975264;28;20053;-82
2021/03/26 08:49:22;;;;;;;52.50;31.85;;;17.30;86.40;;;;;;4957975;28;20142;-82
2021/03/26 08:52:19;;;;;;;49.78;31.10;;;17.40;86.20;;;;;;4974946;28;20085;-81
2021/03/26 08:55:02;;;;;;;56.72;32.28;;;17.70;85.20;;;;;;4973676;28;20499;-83
2021/03/26 08:58:03;;;;;;;52.07;31.63;;;18.10;86.40;;;;;;4973103;28;20054;-82
2021/03/26 09:00:56;;;;;;;52.67;32.67;;;18.40;80.90;;;;;;4971978;28;20062;-82
2021/03/26 09:03:57;;;;;;;53.15;31.48;;;18.50;80.30;;;;;;4933764;28;20055;-82
2021/03/26 09:06:42;;;;;;;47.65;30.77;;;19.20;80.30;;;;;;4974019;28;20435;-82
2021/03/26 09:09:27;;;;;;;42.28;28.80;;;19.90;75.00;;;;;;4973740;28;20142;-82
2021/03/26 09:12:15;;;;;;;45.42;30.13;;;21.00;69.50;;;;;;4973556;28;20480;-82
2021/03/26 09:14:57;;;;;;;48.65;27.92;;;21.60;65.90;;;;;;4973979;28;20137;-82
2021/03/26 09:17:31;;;;;;;47.38;27.02;;;22.60;63.00;;;;;;4973388;28;20054;-82
2021/03/26 09:20:06;;;;;;;42.58;28.02;;;23.50;60.70;;;;;;4974606;28;20051;-83
2021/03/26 09:22:35;;;;;;;38.28;26.30;;;24.40;57.00;;;;;;4957502;28;20129;-82
2021/03/26 09:25:20;;;;;;;55.33;28.58;;;23.10;56.40;;;;;;4974880;28;20181;-83
2021/03/26 09:27:58;;;;;;;39.97;25.98;;;22.70;57.80;;;;;;4974428;28;20047;-82
2021/03/26 09:30:52;;;;;;;44.83;25.38;;;22.20;57.80;;;;;;4974652;28;20500;-82
2021/03/26 09:33:18;;;;;;;36.60;25.17;;;22.90;57.40;;;;;;4958069;28;20146;-82
2021/03/26 09:35:50;;;;;;;41.72;25.17;;;21.90;57.00;;;;;;4974148;28;20492;-82
2021/03/26 09:38:40;;;;;;;35.70;23.52;;;20.90;59.10;;;;;;4957339;28;20396;-82
2021/03/26 09:42:08;;;;;;;29.55;20.20;;;19.90;60.50;;;;;;4957739;28;20050;-82
2021/03/26 09:44:49;;;;;;;29.35;20.20;;;19.00;61.60;;;;;;4964062;28;20407;-82
2021/03/26 09:47:32;;;;;;;26.15;17.73;;;18.10;64.00;;;;;;4973068;28;20047;-82
2021/03/26 09:50:17;;;;;;;25.27;17.60;;;17.30;66.60;;;;;;4957094;28;20086;-82
2021/03/26 09:52:44;;;;;;;45.75;18.35;;;16.60;68.80;;;;;;4975244;28;20055;-81
2021/03/26 09:55:34;;;;;;;31.05;15.48;;;16.30;69.60;;;;;;4975508;28;20414;-83
2021/03/26 09:58:21;;;;;;;22.52;13.80;;;16.20;73.50;;;;;;4974025;28;20141;-84
2021/03/26 10:00:56;;;;;;;16.73;11.75;;;16.20;71.00;;;;;;4974541;28;20097;-84
2021/03/26 10:03:47;;;;;;;15.82;9.90;;;16.00;69.30;;;;;;4973941;28;20134;-84
2021/03/26 10:06:51;;;;;;;14.85;8.75;;;15.70;70.10;;;;;;4974271;28;20082;-83
2021/03/26 10:09:43;;;;;;;10.20;7.25;;;15.40;69.70;;;;;;4956961;28;20125;-84
2021/03/26 10:12:18;;;;;;;14.85;7.90;;;15.20;70.00;;;;;;4957041;28;20051;-83
2021/03/26 10:15:19;;;;;;;11.18;7.05;;;15.30;70.60;;;;;;4956724;28;20050;-84
2021/03/26 10:17:48;;;;;;;14.35;7.57;;;15.30;70.10;;;;;;4973803;28;20141;-84
2021/03/26 10:20:47;;;;;;;22.80;7.22;;;15.20;69.90;;;;;;4973991;28;20078;-83
2021/03/26 10:23:38;;;;;;;14.43;5.40;;;15.00;71.00;;;;;;4905398;28;20145;-84
2021/03/26 10:26:26;;;;;;;7.53;4.78;;;15.10;69.60;;;;;;4956798;28;20106;-84
2021/03/26 10:29:25;;;;;;;6.28;4.55;;;16.50;68.00;;;;;;4974430;28;20285;-82
2021/03/26 10:31:53;;;;;;;10.52;4.18;;;18.80;64.10;;;;;;4964151;28;20074;-83
2021/03/26 10:34:36;;;;;;;10.05;3.80;;;21.30;55.90;;;;;;4977927;28;20506;-83
2021/03/26 10:37:18;;;;;;;6.72;4.53;;;21.90;51.60;;;;;;4960359;28;20137;-82
2021/03/26 10:39:48;;;;;;;4.43;3.80;;;21.30;51.60;;;;;;4960452;28;20464;-82
2021/03/26 10:43:01;;;;;;;5.28;3.78;;;21.50;51.50;;;;;;4978071;28;20499;-82
2021/03/26 10:45:42;;;;;;;7.22;3.20;;;21.40;51.30;;;;;;4954624;28;20137;-83
2021/03/26 10:48:12;;;;;;;7.28;4.30;;;23.00;48.90;;;;;;4960862;28;20059;-82
2021/03/26 10:50:46;;;;;;;7.28;4.70;;;22.20;46.80;;;;;;4960536;28;20055;-85
2021/03/26 10:53:19;;;;;;;33.22;6.15;;;21.40;48.10;;;;;;4977783;28;20050;-84
2021/03/26 10:56:11;;;;;;;11.10;5.10;;;19.80;51.10;;;;;;4960314;28;20126;-84
2021/03/26 10:58:42;;;;;;;9.77;3.50;;;19.50;51.30;;;;;;4921617;28;20138;-84
2021/03/26 11:01:18;;;;;;;8.52;5.70;;;19.30;51.80;;;;;;4960582;28;20062;-84
2021/03/26 11:03:53;;;;;;;8.88;4.25;;;19.10;53.10;;;;;;4976615;28;20151;-84
2021/03/26 11:06:19;;;;;;;9.38;7.55;;;18.80;53.10;;;;;;4957682;28;20051;-84
2021/03/26 11:08:51;;;;;;;8.10;6.32;;;19.10;53.20;;;;;;4961824;28;20194;-82
2021/03/26 11:11:35;;;;;;;6.78;3.53;;;20.80;51.60;;;;;;4977943;28;20047;-83
2021/03/26 11:15:06;;;;;;;7.03;3.88;;;22.70;47.10;;;;;;4974968;28;20047;-82
2021/03/26 11:17:55;;;;;;;5.30;3.72;;;22.70;46.50;;;;;;4920570;28;20133;-83
2021/03/26 11:20:32;;;;;;;7.97;4.60;;;22.40;46.00;;;;;;4975492;28;20093;-82
2021/03/26 11:23:04;;;;;;;6.05;4.43;;;22.40;46.10;;;;;;4976858;28;20134;-83
2021/03/26 11:25:37;;;;;;;10.65;5.05;;;22.00;46.40;;;;;;4977228;28;20105;-83
2021/03/26 11:28:31;;;;;;;10.82;4.60;;;20.00;48.60;;;;;;4976682;28;20054;-82
2021/03/26 11:31:32;;;;;;;9.32;5.20;;;19.10;52.50;;;;;;4959332;28;20089;-82
2021/03/26 11:34:17;;;;;;;10.85;5.57;;;19.60;52.00;;;;;;4976645;28;20057;-83
2021/03/26 11:36:54;;;;;;;6.47;5.70;;;19.70;50.90;;;;;;4959261;28;20093;-82
2021/03/26 11:39:48;;;;;;;9.65;5.57;;;19.50;50.70;;;;;;4959311;28;20436;-84
2021/03/26 11:42:17;;;;;;;12.23;7.20;;;19.70;51.10;;;;;;4959343;28;20054;-82
2021/03/26 11:45:20;;;;;;;9.43;6.05;;;19.70;52.20;;;;;;4960415;28;20057;-82
2021/03/26 11:48:06;;;;;;;8.98;5.95;;;20.40;51.30;;;;;;4971989;28;20159;-82
2021/03/26 11:50:50;;;;;;;8.40;5.47;;;21.00;49.50;;;;;;4976834;28;20046;-82
2021/03/26 11:53:24;;;;;;;6.75;4.72;;;20.60;51.20;;;;;;4976512;28;20053;-82
2021/03/26 11:56:18;;;;;;;9.68;6.80;;;21.40;50.90;;;;;;4976298;28;20094;-82
2021/03/26 11:59:16;;;;;;;10.20;6.32;;;21.90;49.70;;;;;;4976474;28;20138;-82
2021/03/26 12:02:01;;;;;;;6.10;5.45;;;21.30;50.80;;;;;;4930144;28;20082;-82
2021/03/26 12:04:39;;;;;;;9.27;6.05;;;21.80;50.80;;;;;;4976422;28;20043;-83
2021/03/26 12:07:13;;;;;;;9.05;6.22;;;23.00;48.60;;;;;;4958775;28;20127;-82
2021/03/26 12:10:06;;;;;;;11.82;6.53;;;22.20;48.20;;;;;;4958727;28;20058;-83
2021/03/26 12:12:44;;;;;;;14.07;7.28;;;22.70;48.00;;;;;;4958480;28;20502;-83
2021/03/26 12:15:24;;;;;;;10.75;6.97;;;22.60;47.90;;;;;;4974810;28;20075;-82
2021/03/26 12:18:00;;;;;;;8.43;6.55;;;22.50;48.20;;;;;;4974537;28;20090;-82
2021/03/26 12:20:39;;;;;;;49.40;8.95;;;22.00;48.90;;;;;;4975873;28;20055;-83
2021/03/26 12:23:27;;;;;;;14.85;6.60;;;22.10;48.60;;;;;;4976372;28;20058;-82
2021/03/26 12:26:00;;;;;;;10.48;6.32;;;21.90;48.90;;;;;;4980707;28;20087;-83
2021/03/26 12:28:54;;;;;;;10.18;5.88;;;21.60;48.40;;;;;;4975681;28;20133;-83
2021/03/26 12:31:24;;;;;;;16.00;7.63;;;21.40;49.30;;;;;;4931470;28;20072;-83
2021/03/26 12:33:55;;;;;;;38.30;9.60;;;20.70;50.70;;;;;;4974345;28;20051;-82
2021/03/26 12:36:40;;;;;;;9.70;7.47;;;20.60;51.20;;;;;;4975491;28;20490;-81
2021/03/26 12:39:18;;;;;;;14.50;7.22;;;19.90;52.40;;;;;;4975524;28;20509;-82
2021/03/26 12:42:15;;;;;;;10.32;6.75;;;19.70;52.80;;;;;;4958089;28;20051;-82
2021/03/26 12:44:44;;;;;;;7.70;6.40;;;19.60;52.30;;;;;;4958073;28;20097;-82
2021/03/26 12:47:22;;;;;;;7.10;5.82;;;19.30;53.30;;;;;;4959571;28;20411;-82
2021/03/26 12:50:01;;;;;;;11.15;6.22;;;19.40;54.60;;;;;;4975324;28;20086;-83
2021/03/26 12:52:55;;;;;;;11.25;6.30;;;19.70;53.60;;;;;;4956805;28;20515;-84
2021/03/26 12:55:34;;;;;;;10.98;6.45;;;19.40;52.70;;;;;;4975011;28;20542;-83
2021/03/26 12:58:15;;;;;;;11.55;6.53;;;19.30;54.10;;;;;;4958016;28;20081;-83
2021/03/26 13:00:48;;;;;;;8.98;5.65;;;19.10;55.90;;;;;;4974828;28;20053;-83
2021/03/26 13:03:24;;;;;;;11.70;6.75;;;19.40;56.10;;;;;;4975023;28;20078;-83
2021/03/26 13:06:33;;;;;;;10.52;6.70;;;19.00;54.40;;;;;;4957623;28;20098;-83
2021/03/26 13:09:34;;;;;;;11.77;7.00;;;18.50;55.10;;;;;;4958735;28;20090;-83
2021/03/26 13:12:11;;;;;;;10.73;6.40;;;17.90;56.30;;;;;;4957411;28;20073;-83
2021/03/26 13:14:53;;;;;;;8.90;5.63;;;17.40;58.60;;;;;;4957591;28;20055;-83
2021/03/26 13:17:30;;;;;;;10.52;6.70;;;17.40;59.40;;;;;;4973414;28;20108;-83
2021/03/26 13:20:07;;;;;;;10.30;6.25;;;17.40;61.20;;;;;;4957142;28;20050;-84
2021/03/26 13:22:56;;;;;;;16.73;7.43;;;17.50;60.60;;;;;;4957363;28;20198;-83
2021/03/26 13:25:39;;;;;;;10.10;6.00;;;17.40;60.20;;;;;;4974408;28;20050;-83
2021/03/26 13:28:23;;;;;;;8.45;5.85;;;17.40;59.90;;;;;;4957145;28;20484;-83
2021/03/26 13:30:57;;;;;;;7.88;5.20;;;18.20;60.00;;;;;;4974887;28;20065;-83
2021/03/26 13:33:44;;;;;;;9.63;5.43;;;19.30;59.80;;;;;;4957499;28;20059;-84
2021/03/26 13:36:28;;;;;;;6.05;4.03;;;20.30;55.90;;;;;;4957073;28;20152;-83
2021/03/26 13:38:59;;;;;;;17.05;5.07;;;20.50;51.90;;;;;;4957724;28;20091;-83
2021/03/26 13:41:38;;;;;;;9.70;4.30;;;19.70;52.00;;;;;;4973225;28;20081;-83
2021/03/26 13:44:13;;;;;;;6.40;4.63;;;19.40;53.20;;;;;;4957136;28;20078;-83
2021/03/26 13:46:42;;;;;;;6.85;4.38;;;18.80;53.30;;;;;;4956983;28;20074;-84
2021/03/26 13:49:14;;;;;;;3.88;3.38;;;18.70;53.80;;;;;;4957203;28;20058;-84